sensor_id;sensor_type;location;lat;lon;timestamp;P1;durP1;ratioP1;P2;durP2;ratioP2
69358;SDS011;56520;49.066;8.660;2023-07-24T00:00:08;6.78;;;2.50;;
69358;SDS011;56520;49.066;8.660;2023-07-24T00:02:34;6.13;;;2.40;;
69358;SDS011;56520;49.066;8.660;2023-07-24T00:05:00;6.75;;;2.33;;
69358;SDS011;56520;49.066;8.660;2023-07-24T00:07:25;6.82;;;1.90;;
69358;SDS011;56520;49.066;8.660;2023-07-24T00:09:50;6.03;;;2.08;;
69358;SDS011;56520;49.066;8.660;2023-07-24T00:12:16;6.80;;;2.13;;
69358;SDS011;56520;49.066;8.660;2023-07-24T00:14:41;7.93;;;2.20;;
69358;SDS011;56520;49.066;8.660;2023-07-24T00:17:07;7.07;;;2.30;;
69358;SDS011;56520;49.066;8.660;2023-07-24T00:19:32;6.50;;;2.25;;
69358;SDS011;56520;49.066;8.660;2023-07-24T00:21:57;6.70;;;2.47;;
69358;SDS011;56520;49.066;8.660;2023-07-24T00:24:23;10.10;;;2.47;;
69358;SDS011;56520;49.066;8.660;2023-07-24T00:26:48;7.90;;;3.00;;
69358;SDS011;56520;49.066;8.660;2023-07-24T00:29:14;7.82;;;2.17;;
69358;SDS011;56520;49.066;8.660;2023-07-24T00:31:39;6.55;;;2.38;;
69358;SDS011;56520;49.066;8.660;2023-07-24T00:34:05;6.32;;;2.10;;
69358;SDS011;56520;49.066;8.660;2023-07-24T00:36:30;5.57;;;1.83;;
69358;SDS011;56520;49.066;8.660;2023-07-24T00:38:55;6.78;;;2.35;;
69358;SDS011;56520;49.066;8.660;2023-07-24T00:41:21;6.43;;;2.05;;
69358;SDS011;56520;49.066;8.660;2023-07-24T00:43:46;7.05;;;2.38;;
69358;SDS011;56520;49.066;8.660;2023-07-24T00:46:11;6.55;;;2.47;;
69358;SDS011;56520;49.066;8.660;2023-07-24T00:48:38;6.22;;;1.98;;
69358;SDS011;56520;49.066;8.660;2023-07-24T00:51:04;5.72;;;2.03;;
69358;SDS011;56520;49.066;8.660;2023-07-24T00:53:30;5.20;;;2.08;;
69358;SDS011;56520;49.066;8.660;2023-07-24T00:55:55;6.28;;;2.20;;
69358;SDS011;56520;49.066;8.660;2023-07-24T00:58:21;6.05;;;2.28;;
69358;SDS011;56520;49.066;8.660;2023-07-24T01:00:47;6.38;;;2.15;;
69358;SDS011;56520;49.066;8.660;2023-07-24T01:03:13;6.85;;;2.28;;
69358;SDS011;56520;49.066;8.660;2023-07-24T01:05:39;7.07;;;2.50;;
69358;SDS011;56520;49.066;8.660;2023-07-24T01:08:06;8.48;;;2.90;;
69358;SDS011;56520;49.066;8.660;2023-07-24T01:10:31;8.40;;;2.63;;
69358;SDS011;56520;49.066;8.660;2023-07-24T01:15:48;7.53;;;2.50;;
69358;SDS011;56520;49.066;8.660;2023-07-24T01:18:22;7.63;;;2.85;;
69358;SDS011;56520;49.066;8.660;2023-07-24T01:20:57;6.35;;;2.28;;
69358;SDS011;56520;49.066;8.660;2023-07-24T01:26:24;7.60;;;2.78;;
69358;SDS011;56520;49.066;8.660;2023-07-24T01:28:50;8.50;;;2.30;;
69358;SDS011;56520;49.066;8.660;2023-07-24T01:31:16;5.78;;;2.10;;
69358;SDS011;56520;49.066;8.660;2023-07-24T01:33:42;6.55;;;2.30;;
69358;SDS011;56520;49.066;8.660;2023-07-24T01:36:08;6.47;;;2.70;;
69358;SDS011;56520;49.066;8.660;2023-07-24T01:38:35;7.07;;;2.90;;
69358;SDS011;56520;49.066;8.660;2023-07-24T01:41:02;6.85;;;2.30;;
69358;SDS011;56520;49.066;8.660;2023-07-24T01:43:29;6.53;;;2.22;;
69358;SDS011;56520;49.066;8.660;2023-07-24T01:45:54;6.95;;;2.60;;
69358;SDS011;56520;49.066;8.660;2023-07-24T01:48:20;8.13;;;2.35;;
69358;SDS011;56520;49.066;8.660;2023-07-24T01:50:45;7.15;;;2.60;;
69358;SDS011;56520;49.066;8.660;2023-07-24T01:53:11;6.63;;;2.50;;
69358;SDS011;56520;49.066;8.660;2023-07-24T01:55:36;6.72;;;2.40;;
69358;SDS011;56520;49.066;8.660;2023-07-24T01:58:02;6.10;;;2.10;;
69358;SDS011;56520;49.066;8.660;2023-07-24T02:00:27;8.18;;;2.90;;
69358;SDS011;56520;49.066;8.660;2023-07-24T02:02:53;6.82;;;2.67;;
69358;SDS011;56520;49.066;8.660;2023-07-24T02:05:18;5.97;;;2.03;;
69358;SDS011;56520;49.066;8.660;2023-07-24T02:07:44;6.88;;;2.58;;
69358;SDS011;56520;49.066;8.660;2023-07-24T02:10:09;6.93;;;2.13;;
69358;SDS011;56520;49.066;8.660;2023-07-24T02:12:35;6.07;;;2.47;;
69358;SDS011;56520;49.066;8.660;2023-07-24T02:15:00;6.88;;;2.20;;
69358;SDS011;56520;49.066;8.660;2023-07-24T02:17:26;8.02;;;2.67;;
69358;SDS011;56520;49.066;8.660;2023-07-24T02:19:51;6.07;;;2.17;;
69358;SDS011;56520;49.066;8.660;2023-07-24T02:22:17;7.55;;;2.80;;
69358;SDS011;56520;49.066;8.660;2023-07-24T02:24:42;7.50;;;2.70;;
69358;SDS011;56520;49.066;8.660;2023-07-24T02:27:07;7.70;;;2.50;;
69358;SDS011;56520;49.066;8.660;2023-07-24T02:29:36;6.95;;;2.72;;
69358;SDS011;56520;49.066;8.660;2023-07-24T02:32:02;7.03;;;2.65;;
69358;SDS011;56520;49.066;8.660;2023-07-24T02:34:27;8.73;;;2.63;;
69358;SDS011;56520;49.066;8.660;2023-07-24T02:36:53;8.25;;;2.60;;
69358;SDS011;56520;49.066;8.660;2023-07-24T02:39:21;7.25;;;2.63;;
69358;SDS011;56520;49.066;8.660;2023-07-24T02:41:49;7.40;;;2.58;;
69358;SDS011;56520;49.066;8.660;2023-07-24T02:44:15;6.97;;;2.30;;
69358;SDS011;56520;49.066;8.660;2023-07-24T02:46:40;6.18;;;2.20;;
69358;SDS011;56520;49.066;8.660;2023-07-24T02:49:05;6.15;;;2.05;;
69358;SDS011;56520;49.066;8.660;2023-07-24T02:51:31;7.68;;;2.90;;
69358;SDS011;56520;49.066;8.660;2023-07-24T02:53:56;6.55;;;2.47;;
69358;SDS011;56520;49.066;8.660;2023-07-24T02:56:22;6.82;;;2.78;;
69358;SDS011;56520;49.066;8.660;2023-07-24T02:58:48;6.50;;;2.13;;
69358;SDS011;56520;49.066;8.660;2023-07-24T03:01:13;5.85;;;2.13;;
69358;SDS011;56520;49.066;8.660;2023-07-24T03:03:42;6.88;;;2.10;;
69358;SDS011;56520;49.066;8.660;2023-07-24T03:06:08;6.10;;;1.95;;
69358;SDS011;56520;49.066;8.660;2023-07-24T03:08:33;8.10;;;2.13;;
69358;SDS011;56520;49.066;8.660;2023-07-24T03:10:59;6.30;;;2.00;;
69358;SDS011;56520;49.066;8.660;2023-07-24T03:13:25;7.15;;;2.22;;
69358;SDS011;56520;49.066;8.660;2023-07-24T03:15:57;5.43;;;2.20;;
69358;SDS011;56520;49.066;8.660;2023-07-24T03:18:23;8.65;;;3.17;;
69358;SDS011;56520;49.066;8.660;2023-07-24T03:20:49;6.22;;;2.20;;
69358;SDS011;56520;49.066;8.660;2023-07-24T03:23:15;5.88;;;1.92;;
69358;SDS011;56520;49.066;8.660;2023-07-24T03:25:40;6.13;;;2.33;;
69358;SDS011;56520;49.066;8.660;2023-07-24T03:28:06;6.13;;;2.17;;
69358;SDS011;56520;49.066;8.660;2023-07-24T03:30:31;5.78;;;1.90;;
69358;SDS011;56520;49.066;8.660;2023-07-24T03:32:57;4.63;;;1.55;;
69358;SDS011;56520;49.066;8.660;2023-07-24T03:35:22;6.80;;;2.50;;
69358;SDS011;56520;49.066;8.660;2023-07-24T03:37:48;7.55;;;2.90;;
69358;SDS011;56520;49.066;8.660;2023-07-24T03:40:13;6.57;;;2.90;;
69358;SDS011;56520;49.066;8.660;2023-07-24T03:42:39;6.97;;;2.30;;
69358;SDS011;56520;49.066;8.660;2023-07-24T03:45:04;7.38;;;2.65;;
69358;SDS011;56520;49.066;8.660;2023-07-24T03:47:30;6.57;;;2.55;;
69358;SDS011;56520;49.066;8.660;2023-07-24T03:49:56;6.10;;;2.22;;
69358;SDS011;56520;49.066;8.660;2023-07-24T03:52:21;6.32;;;2.33;;
69358;SDS011;56520;49.066;8.660;2023-07-24T03:54:47;6.43;;;2.15;;
69358;SDS011;56520;49.066;8.660;2023-07-24T03:57:12;6.88;;;2.22;;
69358;SDS011;56520;49.066;8.660;2023-07-24T03:59:38;6.22;;;2.22;;
69358;SDS011;56520;49.066;8.660;2023-07-24T04:02:03;6.47;;;2.45;;
69358;SDS011;56520;49.066;8.660;2023-07-24T04:04:29;5.68;;;2.10;;
69358;SDS011;56520;49.066;8.660;2023-07-24T04:06:54;9.55;;;2.72;;
69358;SDS011;56520;49.066;8.660;2023-07-24T04:09:20;8.55;;;2.65;;
69358;SDS011;56520;49.066;8.660;2023-07-24T04:11:45;5.97;;;1.83;;
69358;SDS011;56520;49.066;8.660;2023-07-24T04:14:10;6.90;;;1.98;;
69358;SDS011;56520;49.066;8.660;2023-07-24T04:16:36;5.85;;;1.83;;
69358;SDS011;56520;49.066;8.660;2023-07-24T04:19:02;7.00;;;2.05;;
69358;SDS011;56520;49.066;8.660;2023-07-24T04:21:28;8.43;;;2.78;;
69358;SDS011;56520;49.066;8.660;2023-07-24T04:23:53;7.03;;;2.22;;
69358;SDS011;56520;49.066;8.660;2023-07-24T04:26:19;6.53;;;2.15;;
69358;SDS011;56520;49.066;8.660;2023-07-24T04:28:47;6.20;;;2.20;;
69358;SDS011;56520;49.066;8.660;2023-07-24T04:31:13;7.13;;;3.00;;
69358;SDS011;56520;49.066;8.660;2023-07-24T04:33:38;8.13;;;2.38;;
69358;SDS011;56520;49.066;8.660;2023-07-24T04:36:04;6.55;;;2.53;;
69358;SDS011;56520;49.066;8.660;2023-07-24T04:38:29;6.38;;;2.47;;
69358;SDS011;56520;49.066;8.660;2023-07-24T04:40:55;6.85;;;2.03;;
69358;SDS011;56520;49.066;8.660;2023-07-24T04:43:20;6.63;;;2.17;;
69358;SDS011;56520;49.066;8.660;2023-07-24T04:45:46;5.82;;;2.10;;
69358;SDS011;56520;49.066;8.660;2023-07-24T04:48:11;7.38;;;2.30;;
69358;SDS011;56520;49.066;8.660;2023-07-24T04:50:36;5.80;;;2.00;;
69358;SDS011;56520;49.066;8.660;2023-07-24T04:53:02;6.97;;;2.60;;
69358;SDS011;56520;49.066;8.660;2023-07-24T04:55:27;7.05;;;2.10;;
69358;SDS011;56520;49.066;8.660;2023-07-24T04:57:53;5.75;;;2.38;;
69358;SDS011;56520;49.066;8.660;2023-07-24T05:00:18;6.65;;;2.40;;
69358;SDS011;56520;49.066;8.660;2023-07-24T05:02:44;7.63;;;2.60;;
69358;SDS011;56520;49.066;8.660;2023-07-24T05:05:09;6.85;;;2.55;;
69358;SDS011;56520;49.066;8.660;2023-07-24T05:07:35;6.78;;;2.60;;
69358;SDS011;56520;49.066;8.660;2023-07-24T05:10:00;8.57;;;2.50;;
69358;SDS011;56520;49.066;8.660;2023-07-24T05:12:26;6.63;;;2.28;;
69358;SDS011;56520;49.066;8.660;2023-07-24T05:14:51;7.78;;;2.70;;
69358;SDS011;56520;49.066;8.660;2023-07-24T05:17:17;7.55;;;2.95;;
69358;SDS011;56520;49.066;8.660;2023-07-24T05:19:42;9.27;;;3.47;;
69358;SDS011;56520;49.066;8.660;2023-07-24T05:22:08;8.20;;;2.80;;
69358;SDS011;56520;49.066;8.660;2023-07-24T05:24:35;8.43;;;2.70;;
69358;SDS011;56520;49.066;8.660;2023-07-24T05:27:01;8.15;;;3.20;;
69358;SDS011;56520;49.066;8.660;2023-07-24T05:29:26;8.55;;;2.60;;
69358;SDS011;56520;49.066;8.660;2023-07-24T05:31:52;9.35;;;2.90;;
69358;SDS011;56520;49.066;8.660;2023-07-24T05:34:17;7.55;;;2.85;;
69358;SDS011;56520;49.066;8.660;2023-07-24T05:36:43;7.55;;;3.00;;
69358;SDS011;56520;49.066;8.660;2023-07-24T05:39:08;7.07;;;2.88;;
69358;SDS011;56520;49.066;8.660;2023-07-24T05:41:34;8.05;;;3.00;;
69358;SDS011;56520;49.066;8.660;2023-07-24T05:43:59;9.50;;;3.20;;
69358;SDS011;56520;49.066;8.660;2023-07-24T05:46:24;7.10;;;2.83;;
69358;SDS011;56520;49.066;8.660;2023-07-24T05:48:50;6.90;;;2.55;;
69358;SDS011;56520;49.066;8.660;2023-07-24T05:51:15;8.25;;;2.60;;
69358;SDS011;56520;49.066;8.660;2023-07-24T05:53:40;9.50;;;2.35;;
69358;SDS011;56520;49.066;8.660;2023-07-24T05:56:06;5.88;;;2.40;;
69358;SDS011;56520;49.066;8.660;2023-07-24T05:58:31;7.07;;;2.80;;
69358;SDS011;56520;49.066;8.660;2023-07-24T06:00:57;7.88;;;3.10;;
69358;SDS011;56520;49.066;8.660;2023-07-24T06:03:22;7.25;;;2.53;;
69358;SDS011;56520;49.066;8.660;2023-07-24T06:05:52;9.10;;;2.97;;
69358;SDS011;56520;49.066;8.660;2023-07-24T06:08:18;7.78;;;2.90;;
69358;SDS011;56520;49.066;8.660;2023-07-24T06:10:45;6.93;;;2.50;;
69358;SDS011;56520;49.066;8.660;2023-07-24T06:13:11;6.68;;;2.28;;
69358;SDS011;56520;49.066;8.660;2023-07-24T06:15:37;6.78;;;2.72;;
69358;SDS011;56520;49.066;8.660;2023-07-24T06:18:02;6.95;;;2.38;;
69358;SDS011;56520;49.066;8.660;2023-07-24T06:20:28;8.00;;;2.60;;
69358;SDS011;56520;49.066;8.660;2023-07-24T06:22:53;6.85;;;2.45;;
69358;SDS011;56520;49.066;8.660;2023-07-24T06:25:18;7.28;;;2.75;;
69358;SDS011;56520;49.066;8.660;2023-07-24T06:27:44;7.60;;;2.60;;
69358;SDS011;56520;49.066;8.660;2023-07-24T06:30:09;7.10;;;2.42;;
69358;SDS011;56520;49.066;8.660;2023-07-24T06:32:35;7.18;;;2.65;;
69358;SDS011;56520;49.066;8.660;2023-07-24T06:35:00;5.80;;;1.98;;
69358;SDS011;56520;49.066;8.660;2023-07-24T06:37:25;6.45;;;2.35;;
69358;SDS011;56520;49.066;8.660;2023-07-24T06:39:51;6.35;;;2.33;;
69358;SDS011;56520;49.066;8.660;2023-07-24T06:42:16;6.18;;;2.08;;
69358;SDS011;56520;49.066;8.660;2023-07-24T06:44:42;5.88;;;2.17;;
69358;SDS011;56520;49.066;8.660;2023-07-24T06:47:07;7.47;;;2.45;;
69358;SDS011;56520;49.066;8.660;2023-07-24T06:49:32;7.18;;;2.72;;
69358;SDS011;56520;49.066;8.660;2023-07-24T06:51:58;6.25;;;2.33;;
69358;SDS011;56520;49.066;8.660;2023-07-24T06:54:23;7.25;;;2.50;;
69358;SDS011;56520;49.066;8.660;2023-07-24T06:56:49;6.30;;;2.05;;
69358;SDS011;56520;49.066;8.660;2023-07-24T06:59:14;6.03;;;2.05;;
69358;SDS011;56520;49.066;8.660;2023-07-24T07:01:39;6.70;;;2.30;;
69358;SDS011;56520;49.066;8.660;2023-07-24T07:04:05;6.10;;;2.30;;
69358;SDS011;56520;49.066;8.660;2023-07-24T07:06:30;6.22;;;2.33;;
69358;SDS011;56520;49.066;8.660;2023-07-24T07:08:56;5.13;;;1.90;;
69358;SDS011;56520;49.066;8.660;2023-07-24T07:11:21;6.60;;;1.98;;
69358;SDS011;56520;49.066;8.660;2023-07-24T07:13:46;6.15;;;2.30;;
69358;SDS011;56520;49.066;8.660;2023-07-24T07:16:12;6.95;;;2.28;;
69358;SDS011;56520;49.066;8.660;2023-07-24T07:18:37;6.65;;;2.70;;
69358;SDS011;56520;49.066;8.660;2023-07-24T07:21:03;6.07;;;2.03;;
69358;SDS011;56520;49.066;8.660;2023-07-24T07:23:29;7.38;;;2.70;;
69358;SDS011;56520;49.066;8.660;2023-07-24T07:25:54;8.27;;;3.00;;
69358;SDS011;56520;49.066;8.660;2023-07-24T07:28:19;7.95;;;2.65;;
69358;SDS011;56520;49.066;8.660;2023-07-24T07:30:46;9.40;;;3.40;;
69358;SDS011;56520;49.066;8.660;2023-07-24T07:33:11;6.50;;;2.70;;
69358;SDS011;56520;49.066;8.660;2023-07-24T07:35:37;8.35;;;2.95;;
69358;SDS011;56520;49.066;8.660;2023-07-24T07:38:02;7.32;;;2.67;;
69358;SDS011;56520;49.066;8.660;2023-07-24T07:40:28;7.53;;;2.85;;
69358;SDS011;56520;49.066;8.660;2023-07-24T07:42:54;7.82;;;3.38;;
69358;SDS011;56520;49.066;8.660;2023-07-24T07:45:20;8.13;;;3.03;;
69358;SDS011;56520;49.066;8.660;2023-07-24T07:47:46;9.50;;;3.20;;
69358;SDS011;56520;49.066;8.660;2023-07-24T07:50:12;9.57;;;2.60;;
69358;SDS011;56520;49.066;8.660;2023-07-24T07:52:37;6.78;;;2.53;;
69358;SDS011;56520;49.066;8.660;2023-07-24T07:55:03;7.45;;;3.00;;
69358;SDS011;56520;49.066;8.660;2023-07-24T07:57:31;7.88;;;2.83;;
69358;SDS011;56520;49.066;8.660;2023-07-24T07:59:58;8.27;;;3.10;;
69358;SDS011;56520;49.066;8.660;2023-07-24T08:02:24;8.82;;;3.03;;
69358;SDS011;56520;49.066;8.660;2023-07-24T08:04:49;6.03;;;2.30;;
69358;SDS011;56520;49.066;8.660;2023-07-24T08:07:15;8.25;;;3.17;;
69358;SDS011;56520;49.066;8.660;2023-07-24T08:09:40;7.00;;;2.67;;
69358;SDS011;56520;49.066;8.660;2023-07-24T08:12:06;8.55;;;3.33;;
69358;SDS011;56520;49.066;8.660;2023-07-24T08:14:31;8.90;;;2.95;;
69358;SDS011;56520;49.066;8.660;2023-07-24T08:16:57;7.70;;;3.35;;
69358;SDS011;56520;49.066;8.660;2023-07-24T08:19:22;7.15;;;2.72;;
69358;SDS011;56520;49.066;8.660;2023-07-24T08:21:48;6.90;;;2.60;;
69358;SDS011;56520;49.066;8.660;2023-07-24T08:24:13;9.18;;;3.58;;
69358;SDS011;56520;49.066;8.660;2023-07-24T08:26:38;8.35;;;3.67;;
69358;SDS011;56520;49.066;8.660;2023-07-24T08:29:04;8.75;;;3.10;;
69358;SDS011;56520;49.066;8.660;2023-07-24T08:31:30;8.05;;;3.20;;
69358;SDS011;56520;49.066;8.660;2023-07-24T08:33:55;6.82;;;2.25;;
69358;SDS011;56520;49.066;8.660;2023-07-24T08:36:21;8.88;;;2.92;;
69358;SDS011;56520;49.066;8.660;2023-07-24T08:38:46;7.80;;;3.00;;
69358;SDS011;56520;49.066;8.660;2023-07-24T08:41:13;8.50;;;3.13;;
69358;SDS011;56520;49.066;8.660;2023-07-24T08:43:40;7.30;;;3.10;;
69358;SDS011;56520;49.066;8.660;2023-07-24T08:46:07;8.82;;;3.22;;
69358;SDS011;56520;49.066;8.660;2023-07-24T08:48:35;7.05;;;2.83;;
69358;SDS011;56520;49.066;8.660;2023-07-24T08:51:02;9.82;;;3.22;;
69358;SDS011;56520;49.066;8.660;2023-07-24T08:53:29;7.60;;;2.50;;
69358;SDS011;56520;49.066;8.660;2023-07-24T08:55:57;7.80;;;2.60;;
69358;SDS011;56520;49.066;8.660;2023-07-24T08:58:24;7.82;;;3.05;;
69358;SDS011;56520;49.066;8.660;2023-07-24T09:00:50;7.65;;;2.97;;
69358;SDS011;56520;49.066;8.660;2023-07-24T09:03:17;8.02;;;3.28;;
69358;SDS011;56520;49.066;8.660;2023-07-24T09:05:43;7.70;;;3.08;;
69358;SDS011;56520;49.066;8.660;2023-07-24T09:08:09;10.18;;;3.38;;
69358;SDS011;56520;49.066;8.660;2023-07-24T09:10:35;8.23;;;3.20;;
69358;SDS011;56520;49.066;8.660;2023-07-24T09:13:00;8.85;;;3.25;;
69358;SDS011;56520;49.066;8.660;2023-07-24T09:15:28;8.90;;;3.72;;
69358;SDS011;56520;49.066;8.660;2023-07-24T09:17:55;8.38;;;3.08;;
69358;SDS011;56520;49.066;8.660;2023-07-24T09:20:20;8.48;;;3.72;;
69358;SDS011;56520;49.066;8.660;2023-07-24T09:22:49;7.97;;;3.63;;
69358;SDS011;56520;49.066;8.660;2023-07-24T09:25:29;6.85;;;3.22;;
69358;SDS011;56520;49.066;8.660;2023-07-24T09:27:57;7.72;;;3.13;;
69358;SDS011;56520;49.066;8.660;2023-07-24T09:30:23;7.50;;;3.33;;
69358;SDS011;56520;49.066;8.660;2023-07-24T09:32:51;8.25;;;3.47;;
69358;SDS011;56520;49.066;8.660;2023-07-24T09:35:19;9.38;;;3.65;;
69358;SDS011;56520;49.066;8.660;2023-07-24T09:37:45;8.20;;;2.95;;
69358;SDS011;56520;49.066;8.660;2023-07-24T09:40:12;7.95;;;2.97;;
69358;SDS011;56520;49.066;8.660;2023-07-24T09:42:40;7.68;;;3.05;;
69358;SDS011;56520;49.066;8.660;2023-07-24T09:45:06;7.30;;;3.20;;
69358;SDS011;56520;49.066;8.660;2023-07-24T09:47:33;8.27;;;3.53;;
69358;SDS011;56520;49.066;8.660;2023-07-24T09:49:59;6.75;;;2.70;;
69358;SDS011;56520;49.066;8.660;2023-07-24T09:52:28;7.75;;;3.08;;
69358;SDS011;56520;49.066;8.660;2023-07-24T09:57:32;8.38;;;3.58;;
69358;SDS011;56520;49.066;8.660;2023-07-24T09:59:59;8.00;;;3.35;;
69358;SDS011;56520;49.066;8.660;2023-07-24T10:02:26;7.32;;;3.20;;
69358;SDS011;56520;49.066;8.660;2023-07-24T10:04:52;7.85;;;3.35;;
69358;SDS011;56520;49.066;8.660;2023-07-24T10:07:18;8.07;;;3.40;;
69358;SDS011;56520;49.066;8.660;2023-07-24T10:09:47;8.40;;;3.47;;
69358;SDS011;56520;49.066;8.660;2023-07-24T10:12:13;8.45;;;3.50;;
69358;SDS011;56520;49.066;8.660;2023-07-24T10:14:41;8.40;;;3.00;;
69358;SDS011;56520;49.066;8.660;2023-07-24T10:17:07;8.38;;;3.10;;
69358;SDS011;56520;49.066;8.660;2023-07-24T10:19:36;7.70;;;2.70;;
69358;SDS011;56520;49.066;8.660;2023-07-24T10:22:05;8.50;;;3.38;;
69358;SDS011;56520;49.066;8.660;2023-07-24T10:24:30;7.25;;;3.17;;
69358;SDS011;56520;49.066;8.660;2023-07-24T10:26:57;8.65;;;3.60;;
69358;SDS011;56520;49.066;8.660;2023-07-24T10:29:23;8.38;;;3.80;;
69358;SDS011;56520;49.066;8.660;2023-07-24T10:31:54;8.10;;;3.50;;
69358;SDS011;56520;49.066;8.660;2023-07-24T10:34:20;7.82;;;3.40;;
69358;SDS011;56520;49.066;8.660;2023-07-24T10:36:45;7.50;;;3.20;;
69358;SDS011;56520;49.066;8.660;2023-07-24T10:39:14;8.57;;;3.63;;
69358;SDS011;56520;49.066;8.660;2023-07-24T10:41:41;8.20;;;3.30;;
69358;SDS011;56520;49.066;8.660;2023-07-24T10:44:06;8.63;;;3.78;;
69358;SDS011;56520;49.066;8.660;2023-07-24T10:46:35;8.80;;;3.40;;
69358;SDS011;56520;49.066;8.660;2023-07-24T10:49:02;9.80;;;3.50;;
69358;SDS011;56520;49.066;8.660;2023-07-24T10:51:31;9.13;;;3.47;;
69358;SDS011;56520;49.066;8.660;2023-07-24T10:54:02;9.05;;;3.40;;
69358;SDS011;56520;49.066;8.660;2023-07-24T10:56:29;8.32;;;3.50;;
69358;SDS011;56520;49.066;8.660;2023-07-24T10:58:54;10.18;;;3.28;;
69358;SDS011;56520;49.066;8.660;2023-07-24T11:01:20;9.85;;;3.70;;
69358;SDS011;56520;49.066;8.660;2023-07-24T11:03:45;8.98;;;3.40;;
69358;SDS011;56520;49.066;8.660;2023-07-24T11:06:15;8.23;;;2.85;;
69358;SDS011;56520;49.066;8.660;2023-07-24T11:08:50;6.75;;;2.90;;
69358;SDS011;56520;49.066;8.660;2023-07-24T11:11:17;7.82;;;3.50;;
69358;SDS011;56520;49.066;8.660;2023-07-24T11:13:42;7.63;;;3.10;;
69358;SDS011;56520;49.066;8.660;2023-07-24T11:16:08;8.13;;;2.83;;
69358;SDS011;56520;49.066;8.660;2023-07-24T11:18:43;6.82;;;2.88;;
69358;SDS011;56520;49.066;8.660;2023-07-24T11:21:11;7.35;;;2.83;;
69358;SDS011;56520;49.066;8.660;2023-07-24T11:23:37;6.95;;;3.00;;
69358;SDS011;56520;49.066;8.660;2023-07-24T11:26:03;7.18;;;2.75;;
69358;SDS011;56520;49.066;8.660;2023-07-24T11:28:38;7.30;;;3.00;;
69358;SDS011;56520;49.066;8.660;2023-07-24T11:31:05;7.22;;;2.83;;
69358;SDS011;56520;49.066;8.660;2023-07-24T11:33:30;7.63;;;3.20;;
69358;SDS011;56520;49.066;8.660;2023-07-24T11:35:56;7.65;;;2.80;;
69358;SDS011;56520;49.066;8.660;2023-07-24T11:38:21;8.32;;;3.13;;
69358;SDS011;56520;49.066;8.660;2023-07-24T11:40:47;7.82;;;2.50;;
69358;SDS011;56520;49.066;8.660;2023-07-24T11:43:19;8.18;;;3.10;;
69358;SDS011;56520;49.066;8.660;2023-07-24T11:45:46;7.43;;;3.25;;
69358;SDS011;56520;49.066;8.660;2023-07-24T11:48:21;7.10;;;3.03;;
69358;SDS011;56520;49.066;8.660;2023-07-24T11:50:48;7.90;;;3.15;;
69358;SDS011;56520;49.066;8.660;2023-07-24T11:53:25;8.35;;;2.85;;
69358;SDS011;56520;49.066;8.660;2023-07-24T11:55:51;7.30;;;3.17;;
69358;SDS011;56520;49.066;8.660;2023-07-24T11:58:19;6.63;;;2.95;;
69358;SDS011;56520;49.066;8.660;2023-07-24T12:00:46;7.72;;;2.70;;
69358;SDS011;56520;49.066;8.660;2023-07-24T12:03:12;8.85;;;3.15;;
69358;SDS011;56520;49.066;8.660;2023-07-24T12:05:42;7.68;;;3.10;;
69358;SDS011;56520;49.066;8.660;2023-07-24T12:08:08;6.57;;;2.67;;
69358;SDS011;56520;49.066;8.660;2023-07-24T12:10:36;8.27;;;2.80;;
69358;SDS011;56520;49.066;8.660;2023-07-24T12:13:02;7.63;;;3.40;;
69358;SDS011;56520;49.066;8.660;2023-07-24T12:15:28;8.38;;;3.40;;
69358;SDS011;56520;49.066;8.660;2023-07-24T12:17:53;8.15;;;2.90;;
69358;SDS011;56520;49.066;8.660;2023-07-24T12:20:19;8.50;;;3.30;;
69358;SDS011;56520;49.066;8.660;2023-07-24T12:22:44;7.25;;;3.00;;
69358;SDS011;56520;49.066;8.660;2023-07-24T12:25:11;7.47;;;3.10;;
69358;SDS011;56520;49.066;8.660;2023-07-24T12:27:36;6.72;;;2.65;;
69358;SDS011;56520;49.066;8.660;2023-07-24T12:30:04;7.97;;;2.88;;
69358;SDS011;56520;49.066;8.660;2023-07-24T12:32:31;6.88;;;2.72;;
69358;SDS011;56520;49.066;8.660;2023-07-24T12:34:56;8.68;;;3.33;;
69358;SDS011;56520;49.066;8.660;2023-07-24T12:37:22;8.00;;;2.90;;
69358;SDS011;56520;49.066;8.660;2023-07-24T12:39:48;8.20;;;2.92;;
69358;SDS011;56520;49.066;8.660;2023-07-24T12:42:14;6.60;;;2.53;;
69358;SDS011;56520;49.066;8.660;2023-07-24T12:44:40;7.75;;;3.38;;
69358;SDS011;56520;49.066;8.660;2023-07-24T12:47:06;7.35;;;2.72;;
69358;SDS011;56520;49.066;8.660;2023-07-24T12:49:32;6.75;;;2.55;;
69358;SDS011;56520;49.066;8.660;2023-07-24T12:51:57;6.85;;;2.63;;
69358;SDS011;56520;49.066;8.660;2023-07-24T12:54:23;7.78;;;2.58;;
69358;SDS011;56520;49.066;8.660;2023-07-24T12:56:49;7.93;;;3.30;;
69358;SDS011;56520;49.066;8.660;2023-07-24T12:59:15;6.63;;;3.00;;
69358;SDS011;56520;49.066;8.660;2023-07-24T13:01:41;7.68;;;3.00;;
69358;SDS011;56520;49.066;8.660;2023-07-24T13:04:07;7.55;;;2.88;;
69358;SDS011;56520;49.066;8.660;2023-07-24T13:06:33;7.10;;;3.15;;
69358;SDS011;56520;49.066;8.660;2023-07-24T13:08:59;6.95;;;2.92;;
69358;SDS011;56520;49.066;8.660;2023-07-24T13:11:24;6.35;;;2.42;;
69358;SDS011;56520;49.066;8.660;2023-07-24T13:13:50;9.00;;;3.10;;
69358;SDS011;56520;49.066;8.660;2023-07-24T13:16:16;6.63;;;2.38;;
69358;SDS011;56520;49.066;8.660;2023-07-24T13:18:42;7.45;;;2.90;;
69358;SDS011;56520;49.066;8.660;2023-07-24T13:21:07;8.27;;;2.60;;
69358;SDS011;56520;49.066;8.660;2023-07-24T13:23:33;8.73;;;3.25;;
69358;SDS011;56520;49.066;8.660;2023-07-24T13:25:59;6.97;;;3.00;;
69358;SDS011;56520;49.066;8.660;2023-07-24T13:28:24;6.80;;;2.58;;
69358;SDS011;56520;49.066;8.660;2023-07-24T13:30:50;8.10;;;2.70;;
69358;SDS011;56520;49.066;8.660;2023-07-24T13:33:15;7.28;;;3.00;;
69358;SDS011;56520;49.066;8.660;2023-07-24T13:35:40;8.10;;;2.60;;
69358;SDS011;56520;49.066;8.660;2023-07-24T13:38:06;6.68;;;2.17;;
69358;SDS011;56520;49.066;8.660;2023-07-24T13:40:33;7.70;;;2.72;;
69358;SDS011;56520;49.066;8.660;2023-07-24T13:42:59;7.80;;;2.47;;
69358;SDS011;56520;49.066;8.660;2023-07-24T13:45:24;7.50;;;2.42;;
69358;SDS011;56520;49.066;8.660;2023-07-24T13:47:50;6.75;;;2.45;;
69358;SDS011;56520;49.066;8.660;2023-07-24T13:50:15;6.25;;;2.30;;
69358;SDS011;56520;49.066;8.660;2023-07-24T13:52:40;7.35;;;2.30;;
69358;SDS011;56520;49.066;8.660;2023-07-24T13:55:06;6.90;;;2.78;;
69358;SDS011;56520;49.066;8.660;2023-07-24T13:57:32;7.97;;;2.70;;
69358;SDS011;56520;49.066;8.660;2023-07-24T13:59:57;7.20;;;2.60;;
69358;SDS011;56520;49.066;8.660;2023-07-24T14:02:23;6.43;;;2.25;;
69358;SDS011;56520;49.066;8.660;2023-07-24T14:04:48;7.43;;;2.67;;
69358;SDS011;56520;49.066;8.660;2023-07-24T14:07:13;6.80;;;2.78;;
69358;SDS011;56520;49.066;8.660;2023-07-24T14:09:39;6.40;;;2.38;;
69358;SDS011;56520;49.066;8.660;2023-07-24T14:12:05;7.18;;;2.47;;
69358;SDS011;56520;49.066;8.660;2023-07-24T14:14:31;6.40;;;2.28;;
69358;SDS011;56520;49.066;8.660;2023-07-24T14:16:56;6.35;;;2.33;;
69358;SDS011;56520;49.066;8.660;2023-07-24T14:19:22;6.85;;;2.50;;
69358;SDS011;56520;49.066;8.660;2023-07-24T14:21:48;8.50;;;2.67;;
69358;SDS011;56520;49.066;8.660;2023-07-24T14:24:15;6.90;;;2.15;;
69358;SDS011;56520;49.066;8.660;2023-07-24T14:26:40;6.35;;;2.60;;
69358;SDS011;56520;49.066;8.660;2023-07-24T14:29:06;6.50;;;2.63;;
69358;SDS011;56520;49.066;8.660;2023-07-24T14:31:31;6.47;;;2.60;;
69358;SDS011;56520;49.066;8.660;2023-07-24T14:33:56;8.75;;;2.30;;
69358;SDS011;56520;49.066;8.660;2023-07-24T14:36:22;8.25;;;2.78;;
69358;SDS011;56520;49.066;8.660;2023-07-24T14:38:48;6.38;;;2.30;;
69358;SDS011;56520;49.066;8.660;2023-07-24T14:41:15;8.98;;;2.67;;
69358;SDS011;56520;49.066;8.660;2023-07-24T14:43:41;8.30;;;2.55;;
69358;SDS011;56520;49.066;8.660;2023-07-24T14:46:07;6.13;;;1.95;;
69358;SDS011;56520;49.066;8.660;2023-07-24T14:48:32;6.20;;;2.25;;